CDT,Max TemperatureF,Mean TemperatureF,Min TemperatureF,Max Dew PointF,MeanDew PointF,Min DewpointF,Max Humidity, Mean Humidity, Min Humidity, Max Sea Level PressureIn, Mean Sea Level PressureIn, Min Sea Level PressureIn, Max VisibilityMiles, Mean VisibilityMiles, Min VisibilityMiles, Max Wind SpeedMPH, Mean Wind SpeedMPH, Max Gust SpeedMPH,PrecipitationIn, CloudCover, Events, WindDirDegrees
2013-3-1,36,33,30,30,28,26,93,80,67,30.14,30.11,30.05,10,10,8,8,5,,0.00,8,Snow,288
2013-3-2,34,31,28,28,25,21,89,82,67,30.21,30.15,30.08,10,10,5,13,9,17,0.00,8,Snow,327
2013-3-3,43,34,24,23,18,11,84,60,26,30.23,30.18,30.14,10,10,10,12,7,17,0.00,3,Snow,333
2013-3-4,63,44,25,46,29,20,91,54,27,30.18,30.06,29.93,10,10,10,18,7,26,0.00,2,,166
2013-3-5,57,46,34,56,46,23,100,89,62,30.14,29.93,29.76,10,7,0,18,13,30,0.30,7,Fog-Rain-Thunderstorm,251
2013-3-6,39,34,27,26,23,19,84,66,58,30.33,30.27,30.15,10,10,10,15,10,22,0.00,5,,332
2013-3-7,50,38,26,30,27,23,89,74,46,30.39,30.34,30.31,10,10,9,9,2,,0.00,0,,1
2013-3-8,63,45,27,31,26,19,92,58,18,30.41,30.33,30.28,10,9,5,8,4,,0.00,0,,34
2013-3-9,68,51,34,36,30,23,82,44,24,30.30,30.20,30.12,10,10,10,13,6,20,0.00,0,,136
2013-3-10,72,62,52,56,47,32,90,61,38,30.12,29.98,29.88,10,8,2,24,14,33,0.21,3,Rain-Thunderstorm,160
2013-3-11,56,46,34,55,45,30,100,91,66,30.05,29.91,29.83,10,6,2,14,7,24,0.95,7,Rain-Thunderstorm,236
2013-3-12,54,42,29,32,29,27,96,68,34,30.24,30.15,30.06,10,10,10,13,3,,0.00,0,,328
2013-3-13,50,40,32,32,23,15,93,56,28,30.43,30.33,30.23,10,10,10,17,7,26,0.00,0,,333
2013-3-14,55,39,23,32,22,13,85,56,21,30.45,30.38,30.29,10,10,10,7,3,,0.00,0,,4
2013-3-15,73,54,36,44,38,28,83,49,30,30.28,30.15,30.04,10,10,10,17,8,25,0.00,0,,220
2013-3-16,73,62,50,46,44,40,71,51,33,30.06,30.01,29.96,10,10,10,21,11,28,0.00,0,,221
2013-3-17,70,60,50,55,50,45,92,68,45,30.04,29.97,29.90,10,10,10,17,9,23,0.00,1,,192
2013-3-18,66,56,45,63,56,42,100,91,72,30.03,29.87,29.80,10,6,0,32,13,44,0.79,7,Fog-Rain-Thunderstorm,233
2013-3-19,59,46,34,41,34,23,100,72,31,30.21,30.13,30.05,10,7,0,12,6,17,0.01,0,Fog,10
2013-3-20,55,46,36,26,23,19,67,45,28,30.24,30.15,30.08,10,10,10,14,7,23,0.00,1,,345
2013-3-21,47,36,25,31,18,9,89,51,22,30.14,30.06,30.00,10,9,3,12,5,,0.01,2,Rain,9
2013-3-22,44,38,33,43,37,32,100,95,81,30.06,30.01,29.96,10,7,2,9,4,,0.28,8,Rain,105
2013-3-23,53,48,42,52,47,42,100,99,86,29.99,29.86,29.67,8,4,1,15,6,24,1.53,8,Rain-Thunderstorm,65
2013-3-24,55,46,36,55,47,26,100,91,63,29.91,29.68,29.56,10,7,1,25,6,33,0.45,7,Rain,232
2013-3-25,36,33,30,25,22,19,72,64,55,30.22,30.07,29.93,10,10,10,14,10,24,0.00,7,,300
2013-3-26,38,33,28,26,24,22,80,68,55,30.40,30.31,30.19,10,10,8,13,6,,0.00,6,,325
2013-3-27,54,38,22,31,25,21,96,64,30,30.45,30.39,30.34,10,10,10,8,1,,0.00,0,,299
2013-3-28,63,45,27,35,29,24,100,61,22,30.41,30.36,30.30,10,10,9,6,0,,0.00,0,,345
2013-3-29,68,51,34,46,36,28,92,56,29,30.35,30.28,30.22,10,10,10,14,4,22,0.00,3,,213
2013-3-30,63,52,41,55,52,42,100,97,56,30.24,30.10,30.01,10,4,1,10,3,,0.68,7,Rain,197
2013-3-31,64,58,51,58,55,52,100,96,70,30.04,29.96,29.90,10,5,0,13,6,21,0.06,7,Fog-Rain-Thunderstorm,242